createdAt,value
2019-03-09T00:03:41.541Z,1.41
2019-03-09T00:06:13.527Z,1.39
2019-03-09T00:08:49.305Z,1.36
2019-03-09T00:11:19.578Z,1.34
2019-03-09T00:13:49.801Z,1.35
2019-03-09T00:19:02.288Z,1.36
2019-03-09T00:21:34.155Z,1.32
2019-03-09T00:24:23.282Z,1.33
2019-03-09T00:27:12.430Z,1.30
2019-03-09T00:30:01.535Z,1.18
2019-03-09T00:35:23.693Z,1.31
2019-03-09T00:38:11.236Z,1.23
2019-03-09T00:40:41.480Z,1.30
2019-03-09T00:43:11.723Z,1.30
2019-03-09T00:45:41.968Z,1.24
2019-03-09T00:48:12.217Z,1.27
2019-03-09T00:50:42.414Z,1.24
2019-03-09T00:53:12.680Z,1.26
2019-03-09T00:55:42.929Z,1.25
2019-03-09T00:58:13.163Z,1.28
2019-03-09T01:00:43.366Z,1.30
2019-03-09T01:03:13.717Z,1.34
2019-03-09T01:05:43.893Z,1.38
2019-03-09T01:08:14.193Z,1.39
2019-03-09T01:10:46.050Z,1.41
2019-03-09T01:15:58.581Z,1.46
2019-03-09T01:18:28.781Z,1.48
2019-03-09T01:20:58.978Z,1.48
2019-03-09T01:23:29.154Z,1.49
2019-03-09T01:25:59.453Z,1.46
2019-03-09T01:28:29.738Z,1.51
2019-03-09T01:30:59.984Z,1.52
2019-03-09T01:33:30.232Z,1.50
2019-03-09T01:36:00.530Z,1.50
2019-03-09T01:38:32.355Z,1.47
2019-03-09T01:41:02.567Z,1.46
2019-03-09T01:43:32.758Z,1.39
2019-03-09T01:46:02.948Z,1.36
2019-03-09T01:48:33.239Z,1.36
2019-03-09T01:51:03.504Z,1.28
2019-03-09T01:53:36.992Z,1.27
2019-03-09T01:56:16.889Z,1.26
2019-03-09T01:58:47.136Z,1.21
2019-03-09T02:01:17.346Z,1.21
2019-03-09T02:03:47.596Z,1.18
2019-03-09T02:06:17.796Z,1.09
2019-03-09T02:08:48.130Z,1.11
2019-03-09T02:11:18.502Z,1.07
2019-03-09T02:13:48.734Z,1.00
2019-03-09T02:16:18.970Z,0.95
2019-03-09T02:18:49.249Z,0.93
2019-03-09T02:21:19.464Z,0.93
2019-03-09T02:23:49.705Z,0.95
2019-03-09T02:26:19.954Z,0.93
2019-03-09T02:28:50.158Z,0.94
2019-03-09T02:31:20.484Z,0.95
2019-03-09T02:33:50.703Z,0.98
2019-03-09T02:36:20.913Z,0.98
2019-03-09T02:39:23.067Z,0.99
2019-03-09T02:41:53.319Z,0.99
2019-03-09T02:44:23.651Z,0.97
2019-03-09T02:46:53.904Z,0.98
2019-03-09T02:49:24.091Z,1.02
2019-03-09T02:51:54.377Z,0.99
2019-03-09T02:54:24.598Z,0.97
2019-03-09T02:56:54.793Z,0.98
2019-03-09T02:59:30.913Z,0.97
2019-03-09T03:02:20.051Z,0.95
2019-03-09T03:04:50.301Z,0.96
2019-03-09T03:07:20.520Z,0.95
2019-03-09T03:09:50.715Z,0.98
2019-03-09T03:12:20.888Z,0.98
2019-03-09T03:14:51.311Z,1.01
2019-03-09T03:17:21.545Z,0.96
2019-03-09T03:20:10.646Z,0.99
2019-03-09T03:22:40.947Z,1.01
2019-03-09T03:25:11.158Z,1.04
2019-03-09T03:27:41.365Z,1.04
2019-03-09T03:30:11.659Z,1.04
2019-03-09T03:32:41.917Z,1.02
2019-03-09T03:35:12.106Z,1.03
2019-03-09T03:37:42.396Z,1.02
2019-03-09T03:40:12.736Z,1.00
2019-03-09T03:42:42.898Z,1.03
2019-03-09T03:45:13.347Z,1.00
2019-03-09T03:47:43.521Z,1.02
2019-03-09T03:50:13.831Z,0.99
2019-03-09T03:52:44.072Z,0.97
2019-03-09T03:55:14.412Z,0.91
2019-03-09T03:57:44.676Z,0.89
2019-03-09T04:02:58.555Z,0.86
2019-03-09T04:05:28.844Z,0.84
2019-03-09T04:07:59.062Z,0.84
2019-03-09T04:13:31.487Z,0.78
2019-03-09T04:16:01.688Z,0.81
2019-03-09T04:18:32.003Z,0.81
2019-03-09T04:21:02.236Z,0.78
2019-03-09T04:23:32.498Z,0.77
2019-03-09T04:26:02.766Z,0.79
2019-03-09T04:28:33.056Z,0.77
2019-03-09T04:31:03.355Z,0.83
2019-03-09T04:33:35.224Z,0.80
2019-03-09T04:36:05.499Z,0.89
2019-03-09T04:39:00.350Z,0.92
2019-03-09T04:41:32.192Z,0.96
2019-03-09T04:44:02.417Z,0.98
2019-03-09T04:46:32.702Z,0.95
2019-03-09T04:49:02.958Z,1.01
2019-03-09T04:51:33.199Z,1.00
2019-03-09T04:56:52.666Z,1.00
2019-03-09T04:59:22.895Z,1.05
2019-03-09T05:01:53.190Z,1.04
2019-03-09T05:04:43.433Z,1.06
2019-03-09T05:07:17.007Z,1.12
2019-03-09T05:09:55.391Z,1.17
2019-03-09T05:12:25.605Z,1.14
2019-03-09T05:14:55.789Z,1.10
2019-03-09T05:17:25.970Z,1.14
2019-03-09T05:19:56.236Z,1.17
2019-03-09T05:22:26.468Z,1.24
2019-03-09T05:24:58.289Z,1.31
2019-03-09T05:27:28.531Z,1.37
2019-03-09T05:30:06.770Z,1.36
2019-03-09T05:32:37.208Z,1.47
2019-03-09T05:35:07.540Z,1.48
2019-03-09T05:40:33.073Z,1.65
2019-03-09T05:43:03.365Z,1.73
2019-03-09T05:45:33.666Z,1.83
2019-03-09T05:48:04.157Z,1.91
2019-03-09T05:50:34.357Z,1.95
2019-03-09T05:53:10.678Z,1.98
2019-03-09T05:58:30.352Z,2.03
2019-03-09T06:01:00.777Z,2.14
2019-03-09T06:03:31.229Z,2.16
2019-03-09T06:08:56.273Z,2.29
2019-03-09T06:11:45.807Z,2.40
2019-03-09T06:14:18.779Z,2.47
2019-03-09T06:16:49.523Z,2.51
2019-03-09T06:19:20.064Z,2.48
2019-03-09T06:24:36.079Z,2.52
2019-03-09T06:27:06.835Z,2.51
2019-03-09T06:29:37.613Z,2.44
2019-03-09T06:35:05.150Z,2.48
2019-03-09T06:37:35.796Z,2.45
2019-03-09T06:40:06.854Z,2.44
2019-03-09T06:42:56.455Z,2.37
2019-03-09T06:45:26.946Z,2.38
2019-03-09T06:48:16.679Z,2.31
2019-03-09T06:53:52.943Z,2.34
2019-03-09T06:56:23.515Z,2.24
2019-03-09T06:58:54.257Z,2.27
2019-03-09T07:10:39.684Z,2.32
2019-03-09T07:13:11.035Z,2.31
2019-03-09T07:15:43.770Z,2.24
2019-03-09T07:18:34.745Z,2.27
2019-03-09T07:23:48.145Z,2.45
2019-03-09T07:31:48.949Z,2.64
2019-03-09T07:34:38.515Z,2.75
2019-03-09T07:40:00.165Z,2.64
2019-03-09T07:45:21.747Z,2.64
2019-03-09T07:48:31.600Z,2.67
2019-03-09T07:51:02.214Z,2.61
2019-03-09T07:53:32.729Z,2.65
2019-03-09T07:56:03.457Z,2.76
2019-03-09T07:58:34.032Z,2.85
2019-03-09T08:01:05.034Z,2.84
2019-03-09T08:06:25.251Z,3.00
2019-03-09T08:08:55.873Z,3.11
2019-03-09T08:11:26.274Z,3.22
2019-03-09T08:13:56.946Z,3.34
2019-03-09T08:16:35.564Z,3.34
2019-03-09T08:19:18.899Z,3.33
2019-03-09T08:21:49.736Z,3.17
2019-03-09T08:24:20.315Z,3.22
2019-03-09T08:27:10.291Z,3.21
2019-03-09T08:29:40.880Z,3.19
2019-03-09T08:32:11.810Z,3.31
2019-03-09T08:34:43.070Z,3.24
2019-03-09T08:37:14.203Z,3.32
2019-03-09T08:40:04.522Z,3.34
2019-03-09T08:42:54.202Z,3.32
2019-03-09T08:45:25.393Z,3.38
2019-03-09T08:48:17.332Z,3.38
2019-03-09T08:50:48.273Z,3.41
2019-03-09T08:53:19.453Z,3.54
2019-03-09T08:58:35.086Z,3.59
2019-03-09T09:01:42.332Z,3.62
2019-03-09T09:04:34.786Z,3.62
2019-03-09T09:07:17.601Z,3.60
2019-03-09T09:10:09.723Z,3.67
2019-03-09T09:12:40.902Z,3.74
2019-03-09T09:15:33.935Z,3.74
2019-03-09T09:18:04.844Z,3.78
2019-03-09T09:20:36.208Z,3.84
2019-03-09T09:23:07.077Z,4.01
2019-03-09T09:25:37.985Z,4.16
2019-03-09T09:30:52.734Z,4.60
2019-03-09T09:33:42.703Z,4.62
2019-03-09T09:36:13.520Z,4.96
2019-03-09T09:39:23.620Z,5.06
2019-03-09T09:42:14.657Z,5.19
2019-03-09T09:47:36.929Z,5.41
2019-03-09T09:50:08.959Z,5.41
2019-03-09T09:55:32.265Z,5.54
2019-03-09T09:58:03.157Z,5.72
2019-03-09T10:00:35.391Z,5.56
2019-03-09T10:03:06.240Z,5.53
2019-03-09T10:05:37.493Z,5.70
2019-03-09T10:10:58.042Z,5.96
2019-03-09T10:13:29.240Z,5.81
2019-03-09T10:16:00.544Z,6.11
2019-03-09T10:18:31.848Z,6.28
2019-03-09T10:21:03.670Z,6.20
2019-03-09T10:23:37.169Z,6.33
2019-03-09T10:26:09.850Z,6.32
2019-03-09T10:28:42.326Z,6.46
2019-03-09T10:31:13.642Z,6.52
2019-03-09T10:33:45.101Z,6.57
2019-03-09T10:36:16.040Z,6.54
2019-03-09T10:38:46.914Z,6.50
2019-03-09T10:41:38.502Z,6.59
2019-03-09T10:44:10.195Z,6.53
2019-03-09T10:47:02.102Z,6.59
2019-03-09T10:49:33.826Z,6.70
2019-03-09T10:55:18.973Z,6.91
2019-03-09T11:01:03.439Z,6.92
2019-03-09T11:06:41.363Z,7.10
2019-03-09T11:11:56.496Z,7.26
2019-03-09T11:17:43.953Z,7.29
2019-03-09T11:23:34.570Z,7.40
2019-03-09T11:26:12.032Z,7.55
2019-03-09T11:28:42.685Z,7.35
2019-03-09T11:31:13.310Z,7.26
2019-03-09T11:33:44.425Z,7.06
2019-03-09T11:36:17.678Z,6.91
2019-03-09T11:38:48.615Z,6.86
2019-03-09T11:41:21.090Z,6.80
2019-03-09T11:43:51.867Z,6.62
2019-03-09T11:46:43.422Z,6.67
2019-03-09T11:49:14.527Z,6.74
2019-03-09T11:51:45.040Z,6.70
2019-03-09T11:54:17.910Z,6.67
2019-03-09T11:56:49.016Z,6.66
2019-03-09T11:59:31.415Z,6.69
2019-03-09T12:02:02.095Z,6.58
2019-03-09T12:04:32.758Z,6.61
2019-03-09T12:07:03.269Z,6.63
2019-03-09T12:09:35.441Z,6.57
2019-03-09T12:12:06.210Z,6.65
2019-03-09T12:14:37.017Z,6.70
2019-03-09T12:19:51.559Z,6.61
2019-03-09T12:22:41.180Z,6.46
2019-03-09T12:25:11.977Z,6.63
2019-03-09T12:27:42.692Z,6.48
2019-03-09T12:33:16.882Z,6.63
2019-03-09T12:35:48.982Z,6.54
2019-03-09T12:38:19.691Z,6.62
2019-03-09T12:43:33.218Z,6.72
2019-03-09T12:48:53.186Z,6.95
2019-03-09T12:51:23.658Z,6.80
2019-03-09T12:53:54.149Z,6.84
2019-03-09T12:56:24.854Z,6.90
2019-03-09T12:58:55.416Z,6.79
2019-03-09T13:04:15.212Z,6.73
2019-03-09T13:07:10.916Z,6.69
2019-03-09T13:09:41.580Z,6.72
2019-03-09T13:12:12.407Z,6.72
2019-03-09T13:14:42.967Z,6.56
2019-03-09T13:19:55.118Z,6.38
2019-03-09T13:35:24.262Z,6.43
2019-03-09T13:38:14.778Z,6.23
2019-03-09T13:47:37.485Z,6.24
2019-03-09T13:50:28.372Z,6.02
2019-03-09T13:53:17.647Z,6.18
2019-03-09T13:56:13.161Z,6.29
2019-03-09T13:59:05.379Z,6.25
2019-03-09T14:04:41.358Z,6.16
2019-03-09T14:07:13.440Z,6.27
2019-03-09T14:09:44.130Z,6.10
2019-03-09T14:12:14.718Z,6.05
2019-03-09T14:14:45.381Z,6.03
2019-03-09T14:17:35.727Z,6.07
2019-03-09T14:20:12.108Z,5.96
2019-03-09T14:22:42.983Z,5.86
2019-03-09T14:25:32.616Z,5.79
2019-03-09T14:28:03.658Z,5.87
2019-03-09T14:30:34.138Z,5.80
2019-03-09T14:33:04.281Z,5.81
2019-03-09T14:35:34.556Z,5.84
2019-03-09T14:38:04.705Z,5.66
2019-03-09T14:40:34.990Z,5.86
2019-03-09T14:46:06.575Z,5.60
2019-03-09T14:48:36.849Z,5.34
2019-03-09T14:51:08.227Z,5.24
2019-03-09T14:53:56.154Z,5.32
2019-03-09T14:59:13.127Z,5.18
2019-03-09T15:01:43.431Z,5.10
2019-03-09T15:04:13.753Z,5.06
2019-03-09T15:06:46.689Z,5.09
2019-03-09T15:09:18.576Z,4.93
2019-03-09T15:12:07.849Z,4.83
2019-03-09T15:14:43.235Z,4.89
2019-03-09T15:17:13.363Z,4.89
2019-03-09T15:20:03.543Z,4.79
2019-03-09T15:22:33.930Z,3.18
2019-03-09T15:26:20.666Z,4.67
2019-03-09T15:34:07.483Z,4.53
2019-03-09T15:42:37.832Z,4.57
2019-03-09T15:51:33.920Z,4.66
2019-03-09T15:59:49.464Z,4.68
2019-03-09T16:02:31.390Z,4.61
2019-03-09T16:05:13.223Z,4.71
2019-03-09T16:07:43.465Z,4.72
2019-03-09T16:10:14.521Z,4.80
2019-03-09T16:12:44.718Z,4.76
2019-03-09T16:15:15.264Z,4.78
2019-03-09T16:18:04.823Z,4.71
2019-03-09T16:26:42.336Z,4.74
2019-03-09T16:29:38.691Z,4.71
2019-03-09T16:32:47.063Z,4.77
2019-03-09T16:35:17.780Z,4.52
2019-03-09T16:37:47.987Z,4.62
2019-03-09T16:40:29.349Z,4.55
2019-03-09T16:42:59.674Z,4.68
2019-03-09T16:48:27.380Z,4.53
2019-03-09T16:50:58.653Z,4.53
2019-03-09T16:54:08.447Z,4.58
2019-03-09T16:56:52.298Z,4.55
2019-03-09T16:59:24.278Z,4.51
2019-03-09T17:02:12.875Z,4.43
2019-03-09T17:04:43.813Z,4.34
2019-03-09T17:07:14.720Z,4.40
2019-03-09T17:15:44.663Z,4.35
2019-03-09T17:18:15.257Z,4.36
2019-03-09T17:20:45.838Z,4.42
2019-03-09T17:23:16.786Z,4.50
2019-03-09T17:25:47.343Z,4.47
2019-03-09T17:31:07.427Z,4.47
2019-03-09T17:33:38.363Z,4.45
2019-03-09T17:36:08.970Z,4.54
2019-03-09T17:38:39.796Z,4.63
2019-03-09T17:43:54.000Z,4.71
2019-03-09T17:46:24.941Z,4.75
2019-03-09T17:48:55.911Z,4.74
2019-03-09T17:51:26.523Z,4.74
2019-03-09T17:59:45.728Z,4.68
2019-03-09T18:02:16.237Z,4.56
2019-03-09T18:05:12.414Z,4.65
2019-03-09T18:11:02.963Z,4.74
2019-03-09T18:13:33.403Z,4.72
2019-03-09T18:16:03.910Z,4.68
2019-03-09T18:18:35.275Z,4.70
2019-03-09T18:21:05.933Z,4.66
2019-03-09T18:23:36.623Z,4.68
2019-03-09T18:29:09.388Z,4.72
2019-03-09T18:31:39.967Z,4.75
2019-03-09T18:34:10.683Z,4.80
2019-03-09T18:36:41.251Z,4.82
2019-03-09T18:39:11.857Z,4.83
2019-03-09T18:41:42.361Z,4.82
2019-03-09T18:44:14.697Z,4.83
2019-03-09T18:49:44.106Z,4.81
2019-03-09T18:52:50.525Z,4.80
2019-03-09T18:55:20.653Z,4.79
2019-03-09T18:57:50.829Z,4.75
2019-03-09T19:00:21.277Z,4.67
2019-03-09T19:02:51.381Z,4.67
2019-03-09T19:05:21.565Z,4.64
2019-03-09T19:07:51.887Z,4.67
2019-03-09T19:10:22.077Z,4.66
2019-03-09T19:12:52.258Z,4.60
2019-03-09T19:15:22.437Z,4.58
2019-03-09T19:18:11.791Z,4.53
2019-03-09T19:21:02.796Z,4.53
2019-03-09T19:23:46.361Z,4.45
2019-03-09T19:26:28.839Z,4.46
2019-03-09T19:29:21.469Z,4.35
2019-03-09T19:32:18.175Z,4.38
2019-03-09T19:40:17.924Z,4.32
2019-03-09T19:45:57.721Z,4.32
2019-03-09T19:48:47.438Z,4.32
2019-03-09T19:54:30.625Z,4.33
2019-03-09T20:00:31.518Z,4.30
2019-03-09T20:06:19.594Z,4.33
2019-03-09T20:23:59.886Z,4.09
2019-03-09T20:26:51.630Z,4.03
2019-03-09T20:29:45.316Z,3.99
2019-03-09T20:32:39.347Z,3.98
2019-03-09T20:35:34.912Z,3.96
2019-03-09T20:38:26.938Z,3.85
2019-03-09T20:41:18.211Z,3.95
2019-03-09T20:44:28.077Z,3.76
2019-03-09T20:47:17.496Z,3.68
2019-03-09T20:49:49.365Z,3.70
2019-03-09T20:52:49.761Z,3.68
2019-03-09T20:55:20.163Z,3.72
2019-03-09T21:00:42.206Z,3.49
2019-03-09T21:06:20.906Z,3.54
2019-03-09T21:11:37.839Z,3.42
2019-03-09T21:14:08.084Z,3.36
2019-03-09T21:19:25.930Z,3.41
2019-03-09T21:21:56.351Z,3.39
2019-03-09T21:32:59.025Z,3.04
2019-03-09T21:35:29.247Z,3.17
2019-03-09T21:37:59.758Z,3.12
2019-03-09T21:40:30.067Z,2.96
2019-03-09T21:43:00.406Z,3.02
2019-03-09T21:45:30.786Z,3.04
2019-03-09T21:48:00.886Z,3.03
2019-03-09T21:50:31.068Z,2.91
2019-03-09T21:53:01.222Z,2.84
2019-03-09T21:55:31.404Z,2.84
2019-03-09T21:58:01.545Z,2.79
2019-03-09T22:00:31.642Z,2.84
2019-03-09T22:03:01.755Z,2.78
2019-03-09T22:05:31.939Z,2.78
2019-03-09T22:13:54.594Z,2.45
2019-03-09T22:19:13.477Z,2.19
2019-03-09T22:21:44.251Z,2.33
2019-03-09T22:24:35.188Z,2.49
2019-03-09T22:27:26.312Z,2.47
2019-03-09T22:30:17.430Z,2.47
2019-03-09T22:35:51.179Z,2.48
2019-03-09T22:38:55.997Z,2.39
2019-03-09T22:46:45.516Z,2.18
2019-03-09T22:49:15.752Z,2.07
2019-03-09T22:51:45.909Z,1.94
2019-03-09T22:54:16.066Z,1.77
2019-03-09T22:56:46.181Z,1.78
2019-03-09T22:59:16.314Z,1.68
2019-03-09T23:01:46.405Z,1.72
2019-03-09T23:04:16.557Z,1.84
2019-03-09T23:09:36.781Z,1.94
2019-03-09T23:15:11.349Z,1.57
2019-03-09T23:21:27.003Z,1.45
2019-03-09T23:27:00.208Z,1.52
2019-03-09T23:29:54.487Z,1.65
2019-03-09T23:35:09.277Z,1.60
2019-03-09T23:37:58.947Z,1.60
